Time;durP1;ratioP1;P1;durP2;ratioP2;P2;SDS_P1;SDS_P2;PMS_P1;PMS_P2;Temp;Humidity;BMP_temperature;BMP_pressure;BME280_temperature;BME280_humidity;BME280_pressure;Samples;Min_cycle;Max_cycle;Signal;HPM_P1;HPM_P2
2024/01/09 00:01:21;;;;;;;;;;;26.10;2201.60;;;;;;4938485;29;19914;-76
2024/01/09 00:03:47;;;;;;;;;;;26.10;2201.60;;;;;;4933976;29;19907;-76
2024/01/09 00:06:15;;;;;;;;;;;26.00;2201.60;;;;;;4937708;29;20428;-80
2024/01/09 00:08:41;;;;;;;;;;;26.00;2201.60;;;;;;4937897;29;20005;-83
2024/01/09 00:11:07;;;;;;;;;;;26.10;2201.60;;;;;;4954897;28;20348;-76
2024/01/09 00:13:32;;;;;;;;;;;26.10;2201.60;;;;;;4938233;29;20387;-76
2024/01/09 00:15:58;;;;;;;;;;;26.10;2201.60;;;;;;4945012;29;19937;-75
2024/01/09 00:18:23;;;;;;;;;;;25.90;2201.60;;;;;;4945208;29;19922;-76
2024/01/09 00:20:49;;;;;;;;;;;25.90;2201.60;;;;;;4950608;28;20008;-76
2024/01/09 00:23:14;;;;;;;;;;;26.20;2201.60;;;;;;4961403;28;19910;-76
2024/01/09 00:25:40;;;;;;;;;;;26.20;2201.60;;;;;;4960810;28;19993;-76
2024/01/09 00:28:06;;;;;;;;;;;26.20;2201.60;;;;;;4978432;28;20045;-75
2024/01/09 00:30:31;;;;;;;;;;;26.30;2201.60;;;;;;4993705;28;19906;-77
2024/01/09 00:32:57;;;;;;;;;;;26.20;2201.60;;;;;;4978275;28;20012;-77
2024/01/09 00:35:22;;;;;;;;;;;26.30;2201.60;;;;;;4978568;28;20285;-77
2024/01/09 00:37:48;;;;;;;;;;;26.20;2201.60;;;;;;4977936;28;20008;-84
2024/01/09 00:40:14;;;;;;;;;;;26.20;2201.60;;;;;;4986484;28;19914;-77
2024/01/09 00:42:39;;;;;;;;;;;26.20;2201.60;;;;;;4981764;28;20347;-75
2024/01/09 00:45:06;;;;;;;;;;;26.00;2201.60;;;;;;4968579;28;20415;-75
2024/01/09 00:47:31;;;;;;;;;;;26.10;2201.60;;;;;;4964935;28;19978;-76
2024/01/09 00:49:57;;;;;;;;;;;26.30;2201.60;;;;;;4977615;28;19914;-75
2024/01/09 00:52:23;;;;;;;;;;;26.10;2201.60;;;;;;4977680;28;20335;-76
2024/01/09 00:54:48;;;;;;;;;;;26.20;2201.60;;;;;;4960340;28;19941;-75
2024/01/09 00:57:14;;;;;;;;;;;26.20;2201.60;;;;;;4960598;28;20418;-75
2024/01/09 00:59:39;;;;;;;;;;;26.30;2201.60;;;;;;4977846;28;19914;-76
2024/01/09 01:02:05;;;;;;;;;;;26.20;2201.60;;;;;;4961950;28;20283;-76
2024/01/09 01:04:31;;;;;;;;;;;26.20;2201.60;;;;;;4968296;28;19978;-76
2024/01/09 01:06:56;;;;;;;;;;;26.10;2201.60;;;;;;4985596;28;19906;-76
2024/01/09 01:09:22;;;;;;;;;;;26.20;2201.60;;;;;;4977585;28;19910;-75
2024/01/09 01:11:48;;;;;;;;;;;26.30;2201.60;;;;;;4960016;28;20320;-76
2024/01/09 01:14:13;;;;;;;;;;;26.40;2201.60;;;;;;4977451;28;19912;-75
2024/01/09 01:16:39;;;;;;;;;;;26.40;2201.60;;;;;;4960089;28;20352;-75
2024/01/09 01:19:05;;;;;;;;;;;26.30;2201.60;;;;;;4959979;28;19968;-76
2024/01/09 01:21:30;;;;;;;;;;;26.50;2201.60;;;;;;4959534;28;19918;-76
2024/01/09 01:23:56;;;;;;;;;;;26.50;2201.60;;;;;;4959744;28;20390;-76
2024/01/09 01:26:21;;;;;;;;;;;26.20;2201.60;;;;;;4976491;28;19910;-75
2024/01/09 01:28:47;;;;;;;;;;;26.20;2201.60;;;;;;4959581;28;20311;-75
2024/01/09 01:31:12;;;;;;;;;;;26.20;2201.60;;;;;;4975789;28;20280;-76
2024/01/09 01:33:38;;;;;;;;;;;26.00;2201.60;;;;;;4959661;28;19906;-77
2024/01/09 01:36:04;;;;;;;;;;;26.20;2201.60;;;;;;4976007;28;19917;-77
2024/01/09 01:38:29;;;;;;;;;;;26.10;2201.60;;;;;;4977181;28;19914;-76
2024/01/09 01:40:55;;;;;;;;;;;26.20;2201.60;;;;;;4977225;28;19912;-77
2024/01/09 01:43:21;;;;;;;;;;;26.20;2201.60;;;;;;4960220;28;20379;-75
2024/01/09 01:45:46;;;;;;;;;;;26.20;2201.60;;;;;;4959669;28;19950;-77
2024/01/09 01:48:12;;;;;;;;;;;26.30;2201.60;;;;;;4977095;28;19906;-75
2024/01/09 01:50:37;;;;;;;;;;;26.40;2201.60;;;;;;4959092;28;19910;-77
2024/01/09 01:53:04;;;;;;;;;;;26.30;2201.60;;;;;;4976825;28;19917;-76
2024/01/09 01:55:30;;;;;;;;;;;26.40;2201.60;;;;;;4958862;28;20272;-76
2024/01/09 01:57:57;;;;;;;;;;;26.40;2201.60;;;;;;4959310;28;19993;-75
2024/01/09 02:00:24;;;;;;;;;;;26.40;2201.60;;;;;;4959313;28;19972;-75
2024/01/09 02:02:50;;;;;;;;;;;26.40;2201.60;;;;;;4976631;28;19909;-77
2024/01/09 02:05:21;;;;;;;;;;;26.30;2201.60;;;;;;4976390;28;19913;-76
2024/01/09 02:07:47;;;;;;;;;;;26.20;2201.60;;;;;;4976517;28;19906;-76
2024/01/09 02:10:14;;;;;;;;;;;26.40;2201.60;;;;;;4959216;28;19921;-76
2024/01/09 02:12:39;;;;;;;;;;;26.30;2201.60;;;;;;4959276;28;19913;-77
2024/01/09 02:15:05;;;;;;;;;;;26.50;2201.60;;;;;;4976246;28;19906;-76
2024/01/09 02:17:31;;;;;;;;;;;51.50;2227.20;;;;;;4976313;28;20429;-77
2024/01/09 02:19:58;;;;;;;;;;;26.40;2201.60;;;;;;4971487;28;19918;-76
2024/01/09 02:22:24;;;;;;;;;;;26.20;2201.60;;;;;;4959048;28;20383;-77
2024/01/09 02:24:50;;;;;;;;;;;26.20;2201.60;;;;;;4958537;28;19906;-77
2024/01/09 02:27:44;;;;;;;;;;;26.40;2201.60;;;;;;4958888;28;20320;-76
2024/01/09 02:30:10;;;;;;;;;;;26.30;2201.60;;;;;;4919745;29;19914;-77
2024/01/09 02:32:36;;;;;;;;;;;26.30;2201.60;;;;;;4935828;29;19907;-76
2024/01/09 02:35:02;;;;;;;;;;;26.20;2201.60;;;;;;4919059;29;20400;-78
2024/01/09 02:37:27;;;;;;;;;;;26.30;2201.60;;;;;;4918302;29;19906;-75
2024/01/09 02:39:57;;;;;;;;;;;26.40;2201.60;;;;;;4922635;29;19919;-76
2024/01/09 02:42:22;;;;;;;;;;;26.40;2201.60;;;;;;4919453;29;19907;-76
2024/01/09 02:44:53;;;;;;;;;;;26.20;2201.60;;;;;;4919108;29;20312;-76
2024/01/09 02:47:20;;;;;;;;;;;26.10;2201.60;;;;;;4916136;29;20370;-74
2024/01/09 02:49:45;;;;;;;;;;;25.90;2201.60;;;;;;4906787;29;19911;-75
2024/01/09 02:52:11;;;;;;;;;;;26.20;2201.60;;;;;;4922241;29;20385;-77
2024/01/09 02:54:37;;;;;;;;;;;26.10;2201.60;;;;;;4919659;29;19942;-78
2024/01/09 02:57:02;;;;;;;;;;;26.00;2201.60;;;;;;4915851;29;20288;-75
2024/01/09 02:59:28;;;;;;;;;;;26.00;2201.60;;;;;;4915535;29;19919;-76
2024/01/09 03:01:54;;;;;;;;;;;26.00;2201.60;;;;;;4900343;29;20366;-76
2024/01/09 03:04:19;;;;;;;;;;;25.90;2201.60;;;;;;4904095;29;19907;-78
2024/01/09 03:06:45;;;;;;;;;;;25.80;2201.60;;;;;;4934296;28;19928;-76
2024/01/09 03:09:11;;;;;;;;;;;25.80;2201.60;;;;;;4958551;28;20272;-76
2024/01/09 03:11:37;;;;;;;;;;;25.90;2201.60;;;;;;4958118;28;19928;-76
2024/01/09 03:14:02;;;;;;;;;;;26.10;2201.60;;;;;;4975250;28;20447;-75
2024/01/09 03:16:28;;;;;;;;;;;26.20;2201.60;;;;;;4957985;28;19996;-76
2024/01/09 03:18:53;;;;;;;;;;;26.20;2201.60;;;;;;4958110;28;19937;-77
2024/01/09 03:21:19;;;;;;;;;;;26.00;2201.60;;;;;;4961919;28;19961;-77
2024/01/09 03:23:45;;;;;;;;;;;25.90;2201.60;;;;;;4966912;28;20387;-77
2024/01/09 03:26:10;;;;;;;;;;;26.00;2201.60;;;;;;4938617;28;19979;-80
2024/01/09 03:28:36;;;;;;;;;;;26.10;2201.60;;;;;;4939168;29;19913;-84
2024/01/09 03:31:02;;;;;;;;;;;26.10;2201.60;;;;;;4956244;28;19907;-84
2024/01/09 03:33:28;;;;;;;;;;;26.00;2201.60;;;;;;4939268;29;19971;-84
2024/01/09 03:35:53;;;;;;;;;;;25.90;2201.60;;;;;;4954935;28;20005;-75
2024/01/09 03:38:19;;;;;;;;;;;25.90;2201.60;;;;;;4940498;29;20071;-75
2024/01/09 03:40:45;;;;;;;;;;;25.90;2201.60;;;;;;4938430;29;19950;-75
2024/01/09 03:43:11;;;;;;;;;;;25.70;2201.60;;;;;;4938398;29;19910;-75
2024/01/09 03:45:36;;;;;;;;;;;25.60;2201.60;;;;;;4938463;29;20259;-75
2024/01/09 03:48:02;;;;;;;;;;;25.60;2201.60;;;;;;4938067;29;20340;-76
2024/01/09 03:50:28;;;;;;;;;;;0.90;2201.60;;;;;;4954103;29;19911;-76
2024/01/09 03:52:53;;;;;;;;;;;0.90;2201.60;;;;;;4953784;29;20090;-75
2024/01/09 03:55:19;;;;;;;;;;;0.80;2201.60;;;;;;4954280;29;20383;-76
2024/01/09 03:57:45;;;;;;;;;;;0.90;2201.60;;;;;;4953639;29;19997;-76
2024/01/09 04:00:11;;;;;;;;;;;0.90;2201.60;;;;;;4954379;28;20412;-76
2024/01/09 04:02:37;;;;;;;;;;;25.70;2201.60;;;;;;4938250;29;19916;-76
2024/01/09 04:05:02;;;;;;;;;;;25.70;2201.60;;;;;;4938481;29;19906;-77
2024/01/09 04:07:28;;;;;;;;;;;25.60;2201.60;;;;;;4937791;29;20320;-76
2024/01/09 04:09:53;;;;;;;;;;;25.80;2201.60;;;;;;4955351;28;19911;-79
2024/01/09 04:12:19;;;;;;;;;;;25.60;2201.60;;;;;;4938017;29;19934;-76
2024/01/09 04:14:45;;;;;;;;;;;0.90;2201.60;;;;;;4955344;28;19907;-76
2024/01/09 04:17:11;;;;;;;;;;;0.90;2201.60;;;;;;4950956;29;19953;-76
2024/01/09 04:19:38;;;;;;;;;;;25.60;2201.60;;;;;;4938219;29;20265;-81
2024/01/09 04:22:03;;;;;;;;;;;25.60;2201.60;;;;;;4954779;28;19922;-84
2024/01/09 04:24:29;;;;;;;;;;;25.60;2201.60;;;;;;4955475;28;20280;-76
2024/01/09 04:26:55;;;;;;;;;;;0.80;2201.60;;;;;;4955235;28;20054;-76
2024/01/09 04:29:20;;;;;;;;;;;0.80;2201.60;;;;;;4939367;29;20356;-85
2024/01/09 04:31:46;;;;;;;;;;;0.90;2201.60;;;;;;4957083;28;19937;-76
2024/01/09 04:34:11;;;;;;;;;;;0.80;2201.60;;;;;;4942734;29;19936;-76
2024/01/09 04:36:37;;;;;;;;;;;25.60;2201.60;;;;;;4973665;28;20352;-76
2024/01/09 04:39:03;;;;;;;;;;;25.60;2201.60;;;;;;4957024;29;19953;-76
2024/01/09 04:41:28;;;;;;;;;;;25.60;2201.60;;;;;;4954853;28;19937;-76
2024/01/09 04:43:54;;;;;;;;;;;25.60;2201.60;;;;;;4955177;28;20001;-75
2024/01/09 04:46:19;;;;;;;;;;;25.70;2201.60;;;;;;4954629;28;19910;-75
2024/01/09 04:48:45;;;;;;;;;;;25.70;2201.60;;;;;;4937844;29;19907;-76
2024/01/09 04:51:10;;;;;;;;;;;25.70;2201.60;;;;;;4960169;28;19910;-76
2024/01/09 04:53:36;;;;;;;;;;;25.60;2201.60;;;;;;4962428;28;19911;-76
2024/01/09 04:56:02;;;;;;;;;;;25.60;2201.60;;;;;;4954941;28;20000;-79
2024/01/09 04:58:28;;;;;;;;;;;0.90;2201.60;;;;;;4954822;28;20354;-78
2024/01/09 05:00:55;;;;;;;;;;;25.60;2201.60;;;;;;4956044;28;20387;-77
2024/01/09 05:03:21;;;;;;;;;;;0.70;2201.60;;;;;;4958527;28;20001;-75
2024/01/09 05:05:46;;;;;;;;;;;0.80;2201.60;;;;;;4940865;29;19989;-76
2024/01/09 05:08:12;;;;;;;;;;;0.90;2201.60;;;;;;4941369;29;19993;-76
2024/01/09 05:10:38;;;;;;;;;;;25.70;2201.60;;;;;;4956460;29;20352;-79
2024/01/09 05:13:03;;;;;;;;;;;25.60;2201.60;;;;;;4958988;28;19910;-76
2024/01/09 05:15:29;;;;;;;;;;;25.70;2201.60;;;;;;4941480;29;19906;-76
2024/01/09 05:17:54;;;;;;;;;;;25.60;2201.60;;;;;;4941264;29;19910;-77
2024/01/09 05:20:20;;;;;;;;;;;25.80;2201.60;;;;;;4958164;28;20280;-79
2024/01/09 05:22:45;;;;;;;;;;;25.70;2201.60;;;;;;4958161;28;19917;-77
2024/01/09 05:25:11;;;;;;;;;;;25.60;2201.60;;;;;;4962746;28;20360;-77
2024/01/09 05:27:37;;;;;;;;;;;25.60;2201.60;;;;;;4941434;29;19906;-80
2024/01/09 05:30:03;;;;;;;;;;;25.70;2201.60;;;;;;4957757;28;20256;-78
2024/01/09 05:32:28;;;;;;;;;;;25.70;2201.60;;;;;;4941125;29;20283;-76
2024/01/09 05:34:54;;;;;;;;;;;0.90;2201.60;;;;;;4957867;28;19910;-82
2024/01/09 05:37:20;;;;;;;;;;;0.60;2201.60;;;;;;4958034;28;19914;-75
2024/01/09 05:39:46;;;;;;;;;;;0.60;2201.60;;;;;;4940523;29;19914;-76
2024/01/09 05:42:11;;;;;;;;;;;0.70;2201.60;;;;;;4958047;28;19961;-75
2024/01/09 05:44:37;;;;;;;;;;;0.60;2201.60;;;;;;4957723;28;19997;-75
2024/01/09 05:47:03;;;;;;;;;;;0.50;2201.60;;;;;;4940496;29;19910;-75
2024/01/09 05:49:29;;;;;;;;;;;0.60;2201.60;;;;;;4957459;28;19914;-75
2024/01/09 05:51:54;;;;;;;;;;;0.70;2201.60;;;;;;4940693;29;19910;-75
2024/01/09 05:54:20;;;;;;;;;;;0.60;2201.60;;;;;;4957467;28;19907;-84
2024/01/09 05:56:46;;;;;;;;;;;0.80;2201.60;;;;;;4957617;28;19911;-78
2024/01/09 05:59:12;;;;;;;;;;;25.60;2201.60;;;;;;4957332;28;19970;-78
2024/01/09 06:01:37;;;;;;;;;;;0.90;2201.60;;;;;;4957737;28;19949;-74
2024/01/09 06:04:03;;;;;;;;;;;0.90;2201.60;;;;;;4948763;28;19906;-75
2024/01/09 06:06:29;;;;;;;;;;;0.80;2201.60;;;;;;4956752;29;19975;-77
2024/01/09 06:08:55;;;;;;;;;;;0.80;2201.60;;;;;;4937630;29;19914;-74
2024/01/09 06:11:21;;;;;;;;;;;25.60;2201.60;;;;;;4951346;28;20440;-74
2024/01/09 06:13:46;;;;;;;;;;;0.90;2201.60;;;;;;4939252;29;19911;-77
2024/01/09 06:16:12;;;;;;;;;;;0.90;2201.60;;;;;;4953383;28;19910;-75
2024/01/09 06:18:37;;;;;;;;;;;25.60;2201.60;;;;;;4955280;28;19982;-77
2024/01/09 06:21:03;;;;;;;;;;;25.70;2201.60;;;;;;4957834;28;20012;-77
2024/01/09 06:23:29;;;;;;;;;;;25.80;2201.60;;;;;;4930178;29;20333;-77
2024/01/09 06:25:54;;;;;;;;;;;25.80;2201.60;;;;;;4939287;29;19915;-78
2024/01/09 06:28:20;;;;;;;;;;;25.60;2201.60;;;;;;4936840;29;20272;-77
2024/01/09 06:30:46;;;;;;;;;;;25.70;2201.60;;;;;;4953316;28;19912;-82
2024/01/09 06:33:12;;;;;;;;;;;25.60;2201.60;;;;;;4942795;28;20249;-76
2024/01/09 06:35:37;;;;;;;;;;;25.60;2201.60;;;;;;4939235;29;19906;-79
2024/01/09 06:38:03;;;;;;;;;;;25.70;2201.60;;;;;;4956171;29;20008;-76
2024/01/09 06:40:29;;;;;;;;;;;25.70;2201.60;;;;;;4956037;28;20394;-75
2024/01/09 06:42:54;;;;;;;;;;;25.70;2201.60;;;;;;4955893;29;19911;-80
2024/01/09 06:45:20;;;;;;;;;;;25.70;2201.60;;;;;;4955892;28;19907;-77
2024/01/09 06:47:45;;;;;;;;;;;25.80;2201.60;;;;;;4956127;28;19969;-77
2024/01/09 06:50:11;;;;;;;;;;;25.70;2201.60;;;;;;4943039;29;19910;-77
2024/01/09 06:52:38;;;;;;;;;;;25.70;2201.60;;;;;;4956552;28;19910;-75
2024/01/09 06:55:04;;;;;;;;;;;26.00;2201.60;;;;;;4944141;29;19969;-78
2024/01/09 06:57:29;;;;;;;;;;;26.00;2201.60;;;;;;4956539;28;20348;-82
2024/01/09 06:59:55;;;;;;;;;;;25.90;2201.60;;;;;;4948020;29;19921;-80
2024/01/09 07:02:21;;;;;;;;;;;25.90;2201.60;;;;;;4955869;28;20368;-81
2024/01/09 07:04:47;;;;;;;;;;;26.00;2201.60;;;;;;4956614;28;19942;-81
2024/01/09 07:07:12;;;;;;;;;;;26.00;2201.60;;;;;;4955477;28;20466;-76
2024/01/09 07:09:38;;;;;;;;;;;26.20;2201.60;;;;;;4955781;28;19907;-75
2024/01/09 07:12:05;;;;;;;;;;;26.20;2201.60;;;;;;4938750;29;20022;-77
2024/01/09 07:14:31;;;;;;;;;;;26.30;2201.60;;;;;;4955914;29;20296;-77
2024/01/09 07:16:56;;;;;;;;;;;26.40;2201.60;;;;;;4955354;28;19913;-80
2024/01/09 07:19:22;;;;;;;;;;;26.40;2201.60;;;;;;4938237;29;19958;-78
2024/01/09 07:21:48;;;;;;;;;;;26.50;2201.60;;;;;;4932666;29;20399;-79
2024/01/09 07:24:13;;;;;;;;;;;26.50;2201.60;;;;;;4935865;28;19907;-78
2024/01/09 07:26:39;;;;;;;;;;;26.30;2201.60;;;;;;4938253;29;19914;-79
2024/01/09 07:29:05;;;;;;;;;;;26.20;2201.60;;;;;;4938771;29;19917;-81
2024/01/09 07:31:31;;;;;;;;;;;26.10;2201.60;;;;;;4938678;29;20279;-76
2024/01/09 07:33:56;;;;;;;;;;;26.10;2201.60;;;;;;4943053;29;19907;-78
2024/01/09 07:36:22;;;;;;;;;;;26.30;2201.60;;;;;;4935623;29;19956;-77
2024/01/09 07:38:47;;;;;;;;;;;26.40;2201.60;;;;;;4935631;28;19915;-76
2024/01/09 07:41:13;;;;;;;;;;;26.50;2201.60;;;;;;4938257;29;20357;-80
2024/01/09 07:43:39;;;;;;;;;;;26.50;2201.60;;;;;;4941096;29;19945;-78
2024/01/09 07:46:04;;;;;;;;;;;51.20;2227.20;;;;;;4956035;29;19916;-77
2024/01/09 07:48:30;;;;;;;;;;;51.30;2227.20;;;;;;4936087;28;20275;-78
2024/01/09 07:50:56;;;;;;;;;;;51.30;2227.20;;;;;;4937806;29;19910;-76
2024/01/09 07:53:22;;;;;;;;;;;51.50;2227.20;;;;;;4956127;28;19911;-77
2024/01/09 07:55:47;;;;;;;;;;;51.30;2227.20;;;;;;4937483;29;19917;-76
2024/01/09 07:58:13;;;;;;;;;;;51.20;2227.20;;;;;;4950918;29;19906;-76
2024/01/09 08:00:38;;;;;;;;;;;51.40;2227.20;;;;;;4951985;29;19911;-78
2024/01/09 08:03:07;;;;;;;;;;;51.30;2227.20;;;;;;4955300;28;20008;-78
2024/01/09 08:05:33;;;;;;;;;;;51.30;2227.20;;;;;;4938308;29;19907;-77
2024/01/09 08:07:58;;;;;;;;;;;51.30;2227.20;;;;;;4955454;29;19978;-77
2024/01/09 08:10:24;;;;;;;;;;;51.30;2227.20;;;;;;4956934;29;19938;-76
2024/01/09 08:12:50;;;;;;;;;;;51.30;2227.20;;;;;;4951568;29;19961;-75
2024/01/09 08:15:15;;;;;;;;;;;51.50;2227.20;;;;;;4930194;28;19918;-77
2024/01/09 08:17:41;;;;;;;;;;;51.40;2227.20;;;;;;4942174;29;19969;-76
2024/01/09 08:20:07;;;;;;;;;;;51.50;2227.20;;;;;;4954039;28;19925;-76
2024/01/09 08:22:32;;;;;;;;;;;51.40;2227.20;;;;;;4943853;29;19961;-75
2024/01/09 08:24:59;;;;;;;;;;;51.30;2227.20;;;;;;4944540;28;20330;-74
2024/01/09 08:27:24;;;;;;;;;;;51.40;2227.20;;;;;;4937045;29;19906;-73
2024/01/09 08:29:50;;;;;;;;;;;51.60;2227.20;;;;;;4936937;28;20288;-75
2024/01/09 08:32:18;;;;;;;;;;;51.60;2227.20;;;;;;4945572;29;20005;-76
2024/01/09 08:34:43;;;;;;;;;;;51.70;2227.20;;;;;;4944958;28;20810;-76
2024/01/09 08:37:09;;;;;;;;;;;51.90;2227.20;;;;;;4958297;28;19906;-75
2024/01/09 08:39:35;;;;;;;;;;;51.80;2227.20;;;;;;4937053;29;19994;-76
2024/01/09 08:42:00;;;;;;;;;;;51.90;2227.20;;;;;;4957606;29;19913;-79
2024/01/09 08:44:27;;;;;;;;;;;51.90;2227.20;;;;;;4954503;29;19921;-77
2024/01/09 08:46:52;;;;;;;;;;;51.80;2227.20;;;;;;4958080;29;19913;-76
2024/01/09 08:49:19;;;;;;;;;;;52.10;2227.20;;;;;;4942201;28;19997;-77
2024/01/09 08:51:44;;;;;;;;;;;52.00;2227.20;;;;;;4958134;29;19961;-77
2024/01/09 08:54:10;;;;;;;;;;;52.00;2227.20;;;;;;4944032;29;20313;-76
2024/01/09 08:56:36;;;;;;;;;;;51.60;2227.20;;;;;;4940735;29;19907;-77
2024/01/09 08:59:01;;;;;;;;;;;51.80;2227.20;;;;;;4957848;29;20357;-79
2024/01/09 09:01:28;;;;;;;;;;;51.40;2227.20;;;;;;4958515;29;19928;-79
2024/01/09 09:03:54;;;;;;;;;;;51.60;2227.20;;;;;;4940636;29;19934;-80
2024/01/09 09:06:20;;;;;;;;;;;51.90;2227.20;;;;;;4955810;29;20332;-77
2024/01/09 09:08:45;;;;;;;;;;;52.00;2227.20;;;;;;4941738;28;19914;-76
2024/01/09 09:11:16;;;;;;;;;;;51.90;2227.20;;;;;;4957801;29;19961;-77
2024/01/09 09:13:42;;;;;;;;;;;52.10;2227.20;;;;;;4940720;29;19907;-75
2024/01/09 09:16:08;;;;;;;;;;;76.80;2227.20;;;;;;4950760;29;19966;-75
2024/01/09 09:18:34;;;;;;;;;;;51.80;2227.20;;;;;;4940301;29;19914;-79
2024/01/09 09:21:03;;;;;;;;;;;51.50;2227.20;;;;;;4949475;28;19918;-80
2024/01/09 09:23:29;;;;;;;;;;;51.50;2227.20;;;;;;4955759;28;19910;-76
2024/01/09 09:25:55;;;;;;;;;;;51.50;2227.20;;;;;;4956155;28;19933;-75
2024/01/09 09:28:20;;;;;;;;;;;51.40;2227.20;;;;;;4959327;28;20348;-75
2024/01/09 09:30:46;;;;;;;;;;;26.50;2201.60;;;;;;4959373;28;19906;-75
2024/01/09 09:33:12;;;;;;;;;;;26.50;2201.60;;;;;;4976339;28;19906;-75
2024/01/09 09:35:37;;;;;;;;;;;26.50;2201.60;;;;;;4959998;28;20283;-76
2024/01/09 09:38:04;;;;;;;;;;;51.20;2227.20;;;;;;4976543;28;19913;-80
2024/01/09 09:40:29;;;;;;;;;;;51.20;2227.20;;;;;;4976624;28;20407;-79
2024/01/09 09:42:58;;;;;;;;;;;26.30;2201.60;;;;;;4959294;28;19910;-78
2024/01/09 09:45:26;;;;;;;;;;;26.30;2201.60;;;;;;4976908;28;20360;-79
2024/01/09 09:47:56;;;;;;;;;;;26.50;2201.60;;;;;;4958848;28;19906;-79
2024/01/09 09:50:22;;;;;;;;;;;26.50;2201.60;;;;;;4959474;28;20323;-78
2024/01/09 09:52:48;;;;;;;;;;;51.30;2227.20;;;;;;4958818;28;19956;-77
2024/01/09 09:55:14;;;;;;;;;;;51.40;2227.20;;;;;;4974540;28;19906;-78
2024/01/09 09:57:40;;;;;;;;;;;51.60;2227.20;;;;;;4976217;28;20044;-77
2024/01/09 10:00:08;;;;;;;;;;;51.70;2227.20;;;;;;4958560;28;20394;-78
2024/01/09 10:02:34;;;;;;;;;;;51.70;2227.20;;;;;;4952060;28;19906;-77
2024/01/09 10:05:01;;;;;;;;;;;51.60;2227.20;;;;;;4975482;28;19918;-78
2024/01/09 10:07:27;;;;;;;;;;;51.80;2227.20;;;;;;4958638;28;19914;-78
2024/01/09 10:09:55;;;;;;;;;;;52.10;2227.20;;;;;;4972934;28;19914;-78
2024/01/09 10:12:24;;;;;;;;;;;76.80;2227.20;;;;;;4975976;28;19906;-78
2024/01/09 10:15:02;;;;;;;;;;;76.80;2227.20;;;;;;4958273;28;19997;-79
2024/01/09 10:17:28;;;;;;;;;;;77.00;2227.20;;;;;;4975330;28;19906;-78
2024/01/09 10:19:53;;;;;;;;;;;77.00;2227.20;;;;;;4957027;28;19992;-78
2024/01/09 10:22:20;;;;;;;;;;;77.10;2227.20;;;;;;4954132;29;19960;-78
2024/01/09 10:24:45;;;;;;;;;;;77.10;2227.20;;;;;;4939096;29;19948;-77
2024/01/09 10:27:11;;;;;;;;;;;77.00;2227.20;;;;;;4956634;28;19941;-78
2024/01/09 10:29:43;;;;;;;;;;;52.00;2227.20;;;;;;4938061;29;20380;-77
2024/01/09 10:32:09;;;;;;;;;;;76.90;2227.20;;;;;;4937040;29;19961;-77
2024/01/09 10:34:34;;;;;;;;;;;76.90;2227.20;;;;;;4956126;29;19910;-77
2024/01/09 10:37:07;;;;;;;;;;;76.80;2227.20;;;;;;4956234;28;19985;-78
2024/01/09 10:39:32;;;;;;;;;;;76.80;2227.20;;;;;;4938894;29;19921;-77
2024/01/09 10:42:03;;;;;;;;;;;77.10;2227.20;;;;;;4955894;28;19911;-79
2024/01/09 10:44:29;;;;;;;;;;;77.10;2227.20;;;;;;4956280;28;19922;-77
2024/01/09 10:46:56;;;;;;;;;;;77.10;2227.20;;;;;;4956050;28;20001;-75
2024/01/09 10:49:22;;;;;;;;;;;77.00;2227.20;;;;;;4955537;29;19917;-77
2024/01/09 10:51:48;;;;;;;;;;;77.10;2227.20;;;;;;4956025;28;19937;-77
2024/01/09 10:54:15;;;;;;;;;;;77.10;2227.20;;;;;;4939714;29;19906;-78
2024/01/09 10:56:42;;;;;;;;;;;77.20;2227.20;;;;;;4936358;29;19917;-76
2024/01/09 10:59:11;;;;;;;;;;;77.20;2227.20;;;;;;4938736;29;19950;-78
2024/01/09 11:01:36;;;;;;;;;;;77.30;2227.20;;;;;;4955251;28;19910;-79
2024/01/09 11:04:02;;;;;;;;;;;77.20;2227.20;;;;;;4949475;29;20006;-77
2024/01/09 11:06:29;;;;;;;;;;;77.20;2227.20;;;;;;4944806;29;20373;-78
2024/01/09 11:08:58;;;;;;;;;;;77.20;2227.20;;;;;;4938745;29;19965;-80
2024/01/09 11:11:24;;;;;;;;;;;77.10;2227.20;;;;;;4938663;29;19961;-77
2024/01/09 11:13:52;;;;;;;;;;;77.20;2227.20;;;;;;4938456;29;19953;-76
2024/01/09 11:16:19;;;;;;;;;;;77.30;2227.20;;;;;;4955933;28;19917;-76
2024/01/09 11:18:46;;;;;;;;;;;77.30;2227.20;;;;;;4955523;29;19914;-76
2024/01/09 11:21:11;;;;;;;;;;;77.30;2227.20;;;;;;4960358;28;19918;-76
2024/01/09 11:23:57;;;;;;;;;;;77.30;2227.20;;;;;;4957904;28;19932;-76
2024/01/09 11:26:23;;;;;;;;;;;77.20;2227.20;;;;;;4959623;28;19906;-78
2024/01/09 11:28:49;;;;;;;;;;;76.90;2227.20;;;;;;4975500;28;19933;-77
2024/01/09 11:31:17;;;;;;;;;;;76.80;2227.20;;;;;;4979292;28;19913;-75
2024/01/09 11:33:42;;;;;;;;;;;76.80;2227.20;;;;;;4994199;28;19917;-78
2024/01/09 11:36:08;;;;;;;;;;;52.00;2227.20;;;;;;4969285;28;19906;-77
2024/01/09 11:38:34;;;;;;;;;;;76.80;2227.20;;;;;;4974579;28;19977;-76
2024/01/09 11:41:09;;;;;;;;;;;77.00;2227.20;;;;;;4957600;28;20324;-75
2024/01/09 11:43:53;;;;;;;;;;;77.20;2227.20;;;;;;4954481;28;19938;-77
2024/01/09 11:46:19;;;;;;;;;;;77.30;2227.20;;;;;;4938461;29;19961;-77
2024/01/09 11:48:45;;;;;;;;;;;77.40;2227.20;;;;;;4954018;29;19910;-76
2024/01/09 11:51:12;;;;;;;;;;;77.40;2227.20;;;;;;4938319;29;19921;-77
2024/01/09 11:53:37;;;;;;;;;;;77.30;2227.20;;;;;;4954613;29;19906;-76
2024/01/09 11:56:03;;;;;;;;;;;77.40;2227.20;;;;;;4955654;29;19953;-77
2024/01/09 11:58:29;;;;;;;;;;;77.30;2227.20;;;;;;4954108;29;19906;-77
2024/01/09 12:00:55;;;;;;;;;;;77.30;2227.20;;;;;;4938679;29;20407;-77
2024/01/09 12:03:21;;;;;;;;;;;77.40;2227.20;;;;;;4954241;29;19907;-78
2024/01/09 12:05:50;;;;;;;;;;;77.40;2227.20;;;;;;4954163;29;19960;-80
2024/01/09 12:08:15;;;;;;;;;;;77.50;2227.20;;;;;;4958579;28;19917;-78
2024/01/09 12:10:45;;;;;;;;;;;77.40;2227.20;;;;;;4970560;28;20356;-77
2024/01/09 12:13:10;;;;;;;;;;;77.60;2227.20;;;;;;4963015;28;19984;-79
2024/01/09 12:15:36;;;;;;;;;;;77.60;2227.20;;;;;;4961183;28;19906;-77
2024/01/09 12:18:02;;;;;;;;;;;77.60;2227.20;;;;;;4961501;28;19956;-78
2024/01/09 12:20:28;;;;;;;;;;;77.70;2227.20;;;;;;4960536;28;19922;-75
2024/01/09 12:22:54;;;;;;;;;;;102.40;2227.20;;;;;;4961001;28;20320;-77
2024/01/09 12:25:20;;;;;;;;;;;77.70;2227.20;;;;;;4961141;28;19906;-76
2024/01/09 12:27:45;;;;;;;;;;;77.70;2227.20;;;;;;4961042;28;20366;-76
2024/01/09 12:30:13;;;;;;;;;;;102.40;2227.20;;;;;;4961020;28;19906;-74
2024/01/09 12:32:38;;;;;;;;;;;102.40;2227.20;;;;;;4978525;28;19961;-75
2024/01/09 12:35:04;;;;;;;;;;;77.70;2227.20;;;;;;4978024;28;19910;-76
2024/01/09 12:37:30;;;;;;;;;;;77.70;2227.20;;;;;;4978448;28;19913;-78
2024/01/09 12:39:57;;;;;;;;;;;102.40;2227.20;;;;;;4960674;28;19941;-76
2024/01/09 12:42:23;;;;;;;;;;;77.70;2227.20;;;;;;4960673;28;19906;-76
2024/01/09 12:44:49;;;;;;;;;;;77.70;2227.20;;;;;;4960875;28;19914;-76
2024/01/09 12:47:14;;;;;;;;;;;102.40;2227.20;;;;;;4960909;28;19906;-77
2024/01/09 12:49:46;;;;;;;;;;;102.40;2227.20;;;;;;4960495;28;19914;-77
2024/01/09 12:52:12;;;;;;;;;;;102.50;2227.20;;;;;;4960597;28;19912;-77
2024/01/09 12:54:40;;;;;;;;;;;102.50;2227.20;;;;;;4960623;28;19906;-77
2024/01/09 12:57:06;;;;;;;;;;;102.50;2227.20;;;;;;4960136;28;20004;-77
2024/01/09 12:59:32;;;;;;;;;;;102.50;2227.20;;;;;;4960475;28;20029;-78
2024/01/09 13:01:58;;;;;;;;;;;102.40;2227.20;;;;;;4960472;28;19937;-76
2024/01/09 13:04:24;;;;;;;;;;;102.40;2227.20;;;;;;4959989;28;19906;-81
2024/01/09 13:06:50;;;;;;;;;;;77.70;2227.20;;;;;;4959800;28;19906;-77
2024/01/09 13:09:16;;;;;;;;;;;77.70;2227.20;;;;;;4960378;28;19950;-76
2024/01/09 13:11:43;;;;;;;;;;;102.40;2227.20;;;;;;4959760;28;19953;-82
2024/01/09 13:14:09;;;;;;;;;;;102.50;2227.20;;;;;;4960082;28;19928;-76
2024/01/09 13:16:35;;;;;;;;;;;102.60;2227.20;;;;;;4977562;28;19978;-76
2024/01/09 13:19:00;;;;;;;;;;;77.50;2227.20;;;;;;4977793;28;19909;-79
2024/01/09 13:21:26;;;;;;;;;;;77.50;2227.20;;;;;;4957899;28;19973;-75
2024/01/09 13:23:52;;;;;;;;;;;77.60;2227.20;;;;;;4956575;28;20394;-77
2024/01/09 13:26:18;;;;;;;;;;;77.30;2227.20;;;;;;4976739;28;19906;-78
2024/01/09 13:28:43;;;;;;;;;;;76.90;2227.20;;;;;;4977652;28;20299;-76
2024/01/09 13:31:11;;;;;;;;;;;77.10;2227.20;;;;;;4990060;28;20418;-74
2024/01/09 13:33:37;;;;;;;;;;;77.10;2227.20;;;;;;4977754;28;19961;-77
2024/01/09 13:36:02;;;;;;;;;;;77.10;2227.20;;;;;;4976931;28;19906;-74
2024/01/09 13:38:28;;;;;;;;;;;76.90;2227.20;;;;;;4963621;28;19932;-75
2024/01/09 13:40:55;;;;;;;;;;;76.80;2227.20;;;;;;4971427;28;19933;-82
2024/01/09 13:43:20;;;;;;;;;;;52.00;2227.20;;;;;;4975663;28;19913;-75
2024/01/09 13:45:46;;;;;;;;;;;52.00;2227.20;;;;;;4976419;28;20360;-76
2024/01/09 13:48:12;;;;;;;;;;;52.10;2227.20;;;;;;4974613;28;19921;-74